createdAt,value
2023-02-04T00:00:37.375Z,99.90
2023-02-04T00:03:06.484Z,99.90
2023-02-04T00:05:34.708Z,99.90
2023-02-04T00:08:04.551Z,99.90
2023-02-04T00:10:33.081Z,99.90
2023-02-04T00:13:01.748Z,99.90
2023-02-04T00:15:31.525Z,99.90
2023-02-04T00:17:59.589Z,99.90
2023-02-04T00:20:27.864Z,99.90
2023-02-04T00:22:57.199Z,99.90
2023-02-04T00:25:25.443Z,99.90
2023-02-04T00:27:53.626Z,99.90
2023-02-04T00:30:22.090Z,99.90
2023-02-04T00:32:54.782Z,99.90
2023-02-04T00:35:23.160Z,99.90
2023-02-04T00:37:51.875Z,99.90
2023-02-04T00:40:20.270Z,99.90
2023-02-04T00:42:48.389Z,99.90
2023-02-04T00:45:16.546Z,99.90
2023-02-04T00:47:44.708Z,99.90
2023-02-04T00:50:14.214Z,99.90
2023-02-04T00:52:42.321Z,99.90
2023-02-04T00:55:12.270Z,99.90
2023-02-04T00:57:40.822Z,99.90
2023-02-04T01:00:10.223Z,99.90
2023-02-04T01:02:40.476Z,99.90
2023-02-04T01:05:09.311Z,99.90
2023-02-04T01:07:38.946Z,99.90
2023-02-04T01:10:07.544Z,99.90
2023-02-04T01:12:35.770Z,99.90
2023-02-04T01:15:04.207Z,99.90
2023-02-04T01:17:32.710Z,99.90
2023-02-04T01:20:00.877Z,99.90
2023-02-04T01:22:29.016Z,99.90
2023-02-04T01:24:58.482Z,99.90
2023-02-04T01:27:26.580Z,99.90
2023-02-04T01:29:54.717Z,99.90
2023-02-04T01:34:51.294Z,99.00
2023-02-04T01:37:19.403Z,99.90
2023-02-04T01:39:47.557Z,99.90
2023-02-04T01:42:17.166Z,99.90
2023-02-04T01:44:45.440Z,99.90
2023-02-04T01:47:13.672Z,99.90
2023-02-04T01:49:42.116Z,99.90
2023-02-04T01:52:12.002Z,99.90
2023-02-04T01:54:40.217Z,99.90
2023-02-04T01:57:14.574Z,99.90
2023-02-04T02:02:39.275Z,99.90
2023-02-04T02:05:08.215Z,92.70
2023-02-04T02:07:36.725Z,94.10
2023-02-04T02:10:06.524Z,94.50
2023-02-04T02:12:34.694Z,94.50
2023-02-04T02:15:04.596Z,94.90
2023-02-04T02:17:33.527Z,98.10
2023-02-04T02:20:01.841Z,99.80
2023-02-04T02:22:33.258Z,99.90
2023-02-04T02:25:02.853Z,99.90
2023-02-04T02:27:31.032Z,99.90
2023-02-04T02:29:59.169Z,99.90
2023-02-04T02:34:55.679Z,99.90
2023-02-04T02:37:23.927Z,99.90
2023-02-04T02:39:52.205Z,99.90
2023-02-04T02:44:51.684Z,99.50
2023-02-04T02:47:23.168Z,99.90
2023-02-04T02:49:53.496Z,99.90
2023-02-04T02:57:23.653Z,99.90
2023-02-04T02:59:51.803Z,99.90
2023-02-04T03:02:24.502Z,99.90
2023-02-04T03:04:55.917Z,99.90
2023-02-04T03:07:24.625Z,99.90
2023-02-04T03:09:53.689Z,99.90
2023-02-04T03:12:23.327Z,99.90
2023-02-04T03:14:51.558Z,99.90
2023-02-04T03:17:19.774Z,99.90
2023-02-04T03:19:47.980Z,99.90
2023-02-04T03:22:16.313Z,99.90
2023-02-04T03:24:44.512Z,99.90
2023-02-04T03:27:12.684Z,99.90
2023-02-04T03:29:45.344Z,99.90
2023-02-04T03:32:13.971Z,99.90
2023-02-04T03:34:42.120Z,99.90
2023-02-04T03:37:10.769Z,99.90
2023-02-04T03:39:38.990Z,99.90
2023-02-04T03:42:07.301Z,99.90
2023-02-04T03:44:35.386Z,99.90
2023-02-04T03:47:04.807Z,99.90
2023-02-04T03:49:33.324Z,99.90
2023-02-04T03:52:01.393Z,99.90
2023-02-04T03:54:29.580Z,99.90
2023-02-04T03:56:57.700Z,99.90
2023-02-04T03:59:25.818Z,99.90
2023-02-04T04:01:54.037Z,99.90
2023-02-04T04:04:23.626Z,99.90
2023-02-04T04:06:51.693Z,99.90
2023-02-04T04:09:19.836Z,99.90
2023-02-04T04:11:47.999Z,99.90
2023-02-04T04:14:16.188Z,99.90
2023-02-04T04:16:44.371Z,99.80
2023-02-04T04:19:12.471Z,99.40
2023-02-04T04:21:41.936Z,99.90
2023-02-04T04:24:10.011Z,99.90
2023-02-04T04:26:38.103Z,99.90
2023-02-04T04:29:06.241Z,99.90
2023-02-04T04:31:34.465Z,99.90
2023-02-04T04:34:02.889Z,99.90
2023-02-04T04:36:31.120Z,99.90
2023-02-04T04:39:00.829Z,99.90
2023-02-04T04:41:28.981Z,99.90
2023-02-04T04:43:57.063Z,99.90
2023-02-04T04:46:25.261Z,99.90
2023-02-04T04:48:53.413Z,99.90
2023-02-04T04:51:21.611Z,99.90
2023-02-04T04:53:49.654Z,99.90
2023-02-04T04:56:19.242Z,99.90
2023-02-04T04:58:47.415Z,99.90
2023-02-04T05:01:15.604Z,99.90
2023-02-04T05:03:43.847Z,99.90
2023-02-04T05:06:13.103Z,99.90
2023-02-04T05:08:41.222Z,99.90
2023-02-04T05:11:09.373Z,99.90
2023-02-04T05:13:38.842Z,99.90
2023-02-04T05:16:07.327Z,99.90
2023-02-04T05:18:35.560Z,99.90
2023-02-04T05:21:03.584Z,99.90
2023-02-04T05:23:31.742Z,99.90
2023-02-04T05:25:59.916Z,99.90
2023-02-04T05:28:28.273Z,99.90
2023-02-04T05:30:57.779Z,99.90
2023-02-04T05:33:26.305Z,99.90
2023-02-04T05:35:56.566Z,99.90
2023-02-04T05:38:24.682Z,99.90
2023-02-04T05:40:52.831Z,99.90
2023-02-04T05:43:20.900Z,99.90
2023-02-04T05:45:49.142Z,99.90
2023-02-04T05:48:18.658Z,99.90
2023-02-04T05:50:46.827Z,99.90
2023-02-04T05:53:14.985Z,99.90
2023-02-04T05:55:43.101Z,99.90
2023-02-04T05:58:11.380Z,99.90
2023-02-04T06:00:39.544Z,99.90
2023-02-04T06:03:07.688Z,99.90
2023-02-04T06:05:40.198Z,99.90
2023-02-04T06:08:08.323Z,99.90
2023-02-04T06:10:36.429Z,99.90
2023-02-04T06:13:04.585Z,99.90
2023-02-04T06:15:32.770Z,99.90
2023-02-04T06:18:00.902Z,99.90
2023-02-04T06:20:29.011Z,99.90
2023-02-04T06:22:58.544Z,99.90
2023-02-04T06:25:26.951Z,99.90
2023-02-04T06:27:55.142Z,99.90
2023-02-04T06:30:23.338Z,99.90
2023-02-04T06:32:51.465Z,99.90
2023-02-04T06:35:19.617Z,99.90
2023-02-04T06:37:47.784Z,99.90
2023-02-04T06:40:17.645Z,99.90
2023-02-04T06:42:45.781Z,99.40
2023-02-04T06:45:14.022Z,99.60
2023-02-04T06:47:42.206Z,99.50
2023-02-04T06:50:12.273Z,99.50
2023-02-04T06:52:40.400Z,99.90
2023-02-04T06:55:08.669Z,99.50
2023-02-04T06:57:38.194Z,99.00
2023-02-04T07:00:07.135Z,98.30
2023-02-04T07:02:35.398Z,98.40
2023-02-04T07:05:03.647Z,98.70
2023-02-04T07:07:31.818Z,98.90
2023-02-04T07:09:59.989Z,99.50
2023-02-04T07:12:28.141Z,99.40
2023-02-04T07:14:57.691Z,99.20
2023-02-04T07:17:25.853Z,98.30
2023-02-04T07:19:53.949Z,98.00
2023-02-04T07:22:22.137Z,98.60
2023-02-04T07:24:50.238Z,97.60
2023-02-04T07:27:18.340Z,98.00
2023-02-04T07:29:46.473Z,98.80
2023-02-04T07:34:44.370Z,97.10
2023-02-04T07:37:12.493Z,98.90
2023-02-04T07:39:40.550Z,98.80
2023-02-04T07:42:09.416Z,98.30
2023-02-04T07:44:38.560Z,98.00
2023-02-04T07:47:06.807Z,96.60
2023-02-04T07:49:36.280Z,96.20
2023-02-04T07:52:04.472Z,96.30
2023-02-04T07:54:32.597Z,95.60
2023-02-04T07:57:00.750Z,94.90
2023-02-04T07:59:28.862Z,95.50
2023-02-04T08:01:57.022Z,95.80
2023-02-04T08:04:25.234Z,96.00
2023-02-04T08:06:54.780Z,95.10
2023-02-04T08:09:23.930Z,95.00
2023-02-04T08:11:52.102Z,95.70
2023-02-04T08:14:20.290Z,96.00
2023-02-04T08:16:48.557Z,95.30
2023-02-04T08:19:19.185Z,94.80
2023-02-04T08:21:47.393Z,94.70
2023-02-04T08:24:17.584Z,95.20
2023-02-04T08:26:45.984Z,94.50
2023-02-04T08:29:14.284Z,93.90
2023-02-04T08:31:42.497Z,94.70
2023-02-04T08:34:10.701Z,94.30
2023-02-04T08:36:38.808Z,94.70
2023-02-04T08:39:06.962Z,93.40
2023-02-04T08:41:36.472Z,94.00
2023-02-04T08:44:04.566Z,94.20
2023-02-04T08:46:32.789Z,94.40
2023-02-04T08:49:00.840Z,94.70
2023-02-04T08:51:29.857Z,94.00
2023-02-04T08:53:57.837Z,93.70
2023-02-04T08:56:26.038Z,93.40
2023-02-04T08:58:55.470Z,93.10
2023-02-04T09:01:23.530Z,93.40
2023-02-04T09:03:51.587Z,92.90
2023-02-04T09:06:19.634Z,93.40
2023-02-04T09:08:47.639Z,93.70
2023-02-04T09:11:15.673Z,92.20
2023-02-04T09:13:43.666Z,91.90
2023-02-04T09:16:13.173Z,88.90
2023-02-04T09:18:41.253Z,90.20
2023-02-04T09:21:09.230Z,89.40
2023-02-04T09:23:37.282Z,90.70
2023-02-04T09:26:06.391Z,88.00
2023-02-04T09:28:34.371Z,85.60
2023-02-04T09:31:04.454Z,84.20
2023-02-04T09:33:34.743Z,86.40
2023-02-04T09:36:03.130Z,87.60
2023-02-04T09:38:31.178Z,87.40
2023-02-04T09:41:03.208Z,80.60
2023-02-04T09:43:35.368Z,81.10
2023-02-04T09:46:04.505Z,81.80
2023-02-04T09:48:34.235Z,80.90
2023-02-04T09:51:06.209Z,81.30
2023-02-04T09:53:35.234Z,82.80
2023-02-04T09:56:03.360Z,81.10
2023-02-04T09:58:34.898Z,80.00
2023-02-04T10:01:12.141Z,78.30
2023-02-04T10:03:46.693Z,79.20
2023-02-04T10:06:16.442Z,73.30
2023-02-04T10:08:47.512Z,76.50
2023-02-04T10:11:17.167Z,73.50
2023-02-04T10:13:50.153Z,73.10
2023-02-04T10:16:21.061Z,70.40
2023-02-04T10:18:51.119Z,68.10
2023-02-04T10:21:21.991Z,69.20
2023-02-04T10:23:53.363Z,72.50
2023-02-04T10:26:22.857Z,69.20
2023-02-04T10:28:50.961Z,70.10
2023-02-04T10:31:31.069Z,71.10
2023-02-04T10:34:11.674Z,67.80
2023-02-04T10:36:40.550Z,70.70
2023-02-04T10:39:13.328Z,70.10
2023-02-04T10:41:49.439Z,72.00
2023-02-04T10:44:20.138Z,70.30
2023-02-04T10:46:48.402Z,68.10
2023-02-04T10:49:25.805Z,70.20
2023-02-04T10:51:54.423Z,67.40
2023-02-04T10:54:30.946Z,68.30
2023-02-04T10:57:00.819Z,68.00
2023-02-04T10:59:29.390Z,66.30
2023-02-04T11:01:58.877Z,66.70
2023-02-04T11:04:29.405Z,67.30
2023-02-04T11:06:57.378Z,68.70
2023-02-04T11:09:25.400Z,65.60
2023-02-04T11:11:53.427Z,65.80
2023-02-04T11:14:28.180Z,68.00
2023-02-04T11:17:00.844Z,67.50
2023-02-04T11:19:36.739Z,66.20
2023-02-04T11:22:20.805Z,65.80
2023-02-04T11:24:48.850Z,62.70
2023-02-04T11:27:23.423Z,64.10
2023-02-04T11:29:52.184Z,63.80
2023-02-04T11:32:36.184Z,63.80
2023-02-04T11:35:26.248Z,62.50
2023-02-04T11:37:55.891Z,64.70
2023-02-04T11:40:30.387Z,64.50
2023-02-04T11:43:04.393Z,65.30
2023-02-04T11:45:35.168Z,66.80
2023-02-04T11:48:05.015Z,68.10
2023-02-04T11:50:38.495Z,66.30
2023-02-04T11:53:06.846Z,67.00
2023-02-04T11:55:37.793Z,65.30
2023-02-04T11:58:07.349Z,65.20
2023-02-04T12:00:35.350Z,65.60
2023-02-04T12:03:07.861Z,68.20
2023-02-04T12:05:43.350Z,66.90
2023-02-04T12:08:25.601Z,62.90
2023-02-04T12:11:02.784Z,65.70
2023-02-04T12:13:31.635Z,66.10
2023-02-04T12:16:01.510Z,65.50
2023-02-04T12:21:00.136Z,59.40
2023-02-04T12:23:30.481Z,66.60
2023-02-04T12:25:58.891Z,62.80
2023-02-04T12:28:27.919Z,63.10
2023-02-04T12:33:25.600Z,64.40
2023-02-04T12:35:53.892Z,65.50
2023-02-04T12:38:23.301Z,65.30
2023-02-04T12:40:51.360Z,65.60
2023-02-04T12:43:19.384Z,65.20
2023-02-04T12:45:49.793Z,65.10
2023-02-04T12:48:18.108Z,63.40
2023-02-04T12:50:46.194Z,63.40
2023-02-04T12:53:14.331Z,63.50
2023-02-04T12:55:43.707Z,62.30
2023-02-04T12:58:11.802Z,60.10
2023-02-04T13:00:40.049Z,60.50
2023-02-04T13:03:08.092Z,60.00
2023-02-04T13:05:36.145Z,59.30
2023-02-04T13:08:04.202Z,56.60
2023-02-04T13:10:32.199Z,57.90
2023-02-04T13:13:04.055Z,57.20
2023-02-04T13:15:32.741Z,56.80
2023-02-04T13:18:00.957Z,55.30
2023-02-04T13:20:28.995Z,56.60
2023-02-04T13:22:57.024Z,54.70
2023-02-04T13:25:25.042Z,57.50
2023-02-04T13:27:53.224Z,57.80
2023-02-04T13:30:22.838Z,56.60
2023-02-04T13:32:50.855Z,56.80
2023-02-04T13:35:19.513Z,57.20
2023-02-04T13:37:47.623Z,56.30
2023-02-04T13:40:15.760Z,56.80
2023-02-04T13:45:13.162Z,49.80
2023-02-04T13:47:42.541Z,54.90
2023-02-04T13:50:11.001Z,55.00
2023-02-04T13:52:39.034Z,52.70
2023-02-04T13:55:07.513Z,54.40
2023-02-04T13:57:37.362Z,54.40
2023-02-04T14:00:06.820Z,55.20
2023-02-04T14:02:35.121Z,54.70
2023-02-04T14:05:04.565Z,53.60
2023-02-04T14:07:33.543Z,52.70
2023-02-04T14:10:01.601Z,53.50
2023-02-04T14:14:57.935Z,52.40
2023-02-04T14:17:26.031Z,54.30
2023-02-04T14:19:54.070Z,52.30
2023-02-04T14:22:23.462Z,53.40
2023-02-04T14:24:51.498Z,53.40
2023-02-04T14:27:19.542Z,53.70
2023-02-04T14:34:44.263Z,48.40
2023-02-04T14:37:12.271Z,51.50
2023-02-04T14:39:41.632Z,53.10
2023-02-04T14:42:09.638Z,52.90
